sensor_id;sensor_type;location;lat;lon;timestamp;pressure;altitude;pressure_sealevel;temperature;humidity
80988;BME280;70452;39.386;-3.210;2023-12-20T00:02:20;95278.16;;;1.67;100.00
80988;BME280;70452;39.386;-3.210;2023-12-20T00:04:53;95270.72;;;1.76;100.00
80988;BME280;70452;39.386;-3.210;2023-12-20T00:07:35;95267.84;;;1.77;100.00
80988;BME280;70452;39.386;-3.210;2023-12-20T00:10:18;95275.47;;;1.74;100.00
80988;BME280;70452;39.386;-3.210;2023-12-20T00:12:50;95268.63;;;1.71;100.00
80988;BME280;70452;39.386;-3.210;2023-12-20T00:15:49;95264.09;;;1.72;100.00
80988;BME280;70452;39.386;-3.210;2023-12-20T00:18:38;95264.72;;;1.74;100.00
80988;BME280;70452;39.386;-3.210;2023-12-20T00:24:15;95246.13;;;1.72;100.00
80988;BME280;70452;39.386;-3.210;2023-12-20T00:26:58;95245.47;;;1.70;100.00
80988;BME280;70452;39.386;-3.210;2023-12-20T00:29:28;95231.22;;;1.69;100.00
80988;BME280;70452;39.386;-3.210;2023-12-20T00:32:11;95232.03;;;1.70;100.00
80988;BME280;70452;39.386;-3.210;2023-12-20T00:34:54;95228.31;;;1.71;100.00
80988;BME280;70452;39.386;-3.210;2023-12-20T00:37:38;95229.34;;;1.70;100.00
80988;BME280;70452;39.386;-3.210;2023-12-20T00:43:10;95229.13;;;1.58;100.00
80988;BME280;70452;39.386;-3.210;2023-12-20T00:45:52;95223.31;;;1.55;100.00
80988;BME280;70452;39.386;-3.210;2023-12-20T00:48:24;95223.31;;;1.55;100.00
80988;BME280;70452;39.386;-3.210;2023-12-20T00:50:55;95221.47;;;1.55;100.00
80988;BME280;70452;39.386;-3.210;2023-12-20T00:53:35;95218.16;;;1.53;100.00
80988;BME280;70452;39.386;-3.210;2023-12-20T00:56:18;95223.53;;;1.53;100.00
80988;BME280;70452;39.386;-3.210;2023-12-20T00:58:58;95223.94;;;1.50;100.00
80988;BME280;70452;39.386;-3.210;2023-12-20T01:01:42;95232.59;;;1.45;100.00
80988;BME280;70452;39.386;-3.210;2023-12-20T01:04:22;95239.97;;;1.30;100.00
80988;BME280;70452;39.386;-3.210;2023-12-20T01:07:16;95240.38;;;1.34;100.00
80988;BME280;70452;39.386;-3.210;2023-12-20T01:09:54;95239.19;;;1.01;100.00
80988;BME280;70452;39.386;-3.210;2023-12-20T01:12:28;95245.22;;;0.40;100.00
80988;BME280;70452;39.386;-3.210;2023-12-20T01:15:02;95254.13;;;-0.03;100.00
80988;BME280;70452;39.386;-3.210;2023-12-20T01:17:31;95255.38;;;-0.05;100.00
80988;BME280;70452;39.386;-3.210;2023-12-20T01:20:21;95248.38;;;-0.21;100.00
80988;BME280;70452;39.386;-3.210;2023-12-20T01:23:04;95250.69;;;-0.18;100.00
80988;BME280;70452;39.386;-3.210;2023-12-20T01:26:02;95241.56;;;-0.02;100.00
80988;BME280;70452;39.386;-3.210;2023-12-20T01:28:58;95235.19;;;-0.23;100.00
80988;BME280;70452;39.386;-3.210;2023-12-20T01:34:57;95228.41;;;-0.62;100.00
80988;BME280;70452;39.386;-3.210;2023-12-20T01:37:48;95241.53;;;-0.67;100.00
80988;BME280;70452;39.386;-3.210;2023-12-20T01:40:20;95244.84;;;-0.80;100.00
80988;BME280;70452;39.386;-3.210;2023-12-20T01:43:09;95250.88;;;-0.92;100.00
80988;BME280;70452;39.386;-3.210;2023-12-20T01:45:38;95256.06;;;-0.91;100.00
80988;BME280;70452;39.386;-3.210;2023-12-20T01:48:24;95256.06;;;-0.91;100.00
80988;BME280;70452;39.386;-3.210;2023-12-20T01:51:14;95254.75;;;-0.95;100.00
80988;BME280;70452;39.386;-3.210;2023-12-20T01:53:56;95246.44;;;-0.85;100.00
80988;BME280;70452;39.386;-3.210;2023-12-20T01:56:26;95237.06;;;-0.96;100.00
80988;BME280;70452;39.386;-3.210;2023-12-20T01:59:00;95225.56;;;-0.75;100.00
80988;BME280;70452;39.386;-3.210;2023-12-20T02:01:40;95213.88;;;-1.19;100.00
80988;BME280;70452;39.386;-3.210;2023-12-20T02:04:16;95216.66;;;-1.42;100.00
80988;BME280;70452;39.386;-3.210;2023-12-20T02:06:58;95208.00;;;-1.59;100.00
80988;BME280;70452;39.386;-3.210;2023-12-20T02:09:31;95202.91;;;-1.68;100.00
80988;BME280;70452;39.386;-3.210;2023-12-20T02:12:58;95222.84;;;-1.56;100.00
80988;BME280;70452;39.386;-3.210;2023-12-20T02:15:49;95221.19;;;-1.57;100.00
80988;BME280;70452;39.386;-3.210;2023-12-20T02:18:22;95215.56;;;-1.47;100.00
80988;BME280;70452;39.386;-3.210;2023-12-20T02:21:02;95208.53;;;-1.19;100.00
80988;BME280;70452;39.386;-3.210;2023-12-20T02:23:40;95216.28;;;-1.24;100.00
80988;BME280;70452;39.386;-3.210;2023-12-20T02:26:16;95202.38;;;-1.34;100.00
80988;BME280;70452;39.386;-3.210;2023-12-20T02:28:52;95198.78;;;-1.56;100.00
80988;BME280;70452;39.386;-3.210;2023-12-20T02:31:36;95203.31;;;-1.42;100.00
80988;BME280;70452;39.386;-3.210;2023-12-20T02:34:07;95196.69;;;-1.46;100.00
80988;BME280;70452;39.386;-3.210;2023-12-20T02:39:57;95213.53;;;-1.60;100.00
80988;BME280;70452;39.386;-3.210;2023-12-20T02:42:28;95206.63;;;-1.55;100.00
80988;BME280;70452;39.386;-3.210;2023-12-20T02:45:00;95206.25;;;-1.52;100.00
80988;BME280;70452;39.386;-3.210;2023-12-20T02:47:37;95203.69;;;-1.60;100.00
80988;BME280;70452;39.386;-3.210;2023-12-20T02:50:25;95203.75;;;-1.53;100.00
80988;BME280;70452;39.386;-3.210;2023-12-20T02:53:02;95199.97;;;-1.59;100.00
80988;BME280;70452;39.386;-3.210;2023-12-20T02:55:54;95195.63;;;-1.45;100.00
80988;BME280;70452;39.386;-3.210;2023-12-20T02:58:36;95199.16;;;-1.59;100.00
80988;BME280;70452;39.386;-3.210;2023-12-20T03:01:07;95202.53;;;-1.65;100.00
80988;BME280;70452;39.386;-3.210;2023-12-20T03:03:36;95191.94;;;-1.59;100.00
80988;BME280;70452;39.386;-3.210;2023-12-20T03:06:23;95192.78;;;-1.43;100.00
80988;BME280;70452;39.386;-3.210;2023-12-20T03:08:51;95189.66;;;-1.47;100.00
80988;BME280;70452;39.386;-3.210;2023-12-20T03:11:41;95182.19;;;-1.66;100.00
80988;BME280;70452;39.386;-3.210;2023-12-20T03:14:18;95196.84;;;-1.62;100.00
80988;BME280;70452;39.386;-3.210;2023-12-20T03:16:53;95199.69;;;-1.64;100.00
80988;BME280;70452;39.386;-3.210;2023-12-20T03:19:24;95189.94;;;-1.72;100.00
80988;BME280;70452;39.386;-3.210;2023-12-20T03:22:13;95181.78;;;-1.63;100.00
80988;BME280;70452;39.386;-3.210;2023-12-20T03:24:49;95182.66;;;-1.63;100.00
80988;BME280;70452;39.386;-3.210;2023-12-20T03:27:33;95184.28;;;-1.62;100.00
80988;BME280;70452;39.386;-3.210;2023-12-20T03:30:02;95175.44;;;-1.62;100.00
80988;BME280;70452;39.386;-3.210;2023-12-20T03:32:44;95171.50;;;-1.66;100.00
80988;BME280;70452;39.386;-3.210;2023-12-20T03:35:13;95175.06;;;-1.74;100.00
80988;BME280;70452;39.386;-3.210;2023-12-20T03:37:46;95169.09;;;-1.76;100.00
80988;BME280;70452;39.386;-3.210;2023-12-20T03:40:32;95171.56;;;-1.75;100.00
80988;BME280;70452;39.386;-3.210;2023-12-20T03:43:25;95170.28;;;-1.79;100.00
80988;BME280;70452;39.386;-3.210;2023-12-20T03:46:06;95176.00;;;-1.82;100.00
80988;BME280;70452;39.386;-3.210;2023-12-20T03:48:50;95173.50;;;-1.83;100.00
80988;BME280;70452;39.386;-3.210;2023-12-20T03:51:38;95159.03;;;-1.89;100.00
80988;BME280;70452;39.386;-3.210;2023-12-20T03:54:37;95165.03;;;-1.87;100.00
80988;BME280;70452;39.386;-3.210;2023-12-20T03:57:03;95162.31;;;-2.02;100.00
80988;BME280;70452;39.386;-3.210;2023-12-20T03:59:42;95164.53;;;-2.05;100.00
80988;BME280;70452;39.386;-3.210;2023-12-20T04:02:51;95164.50;;;-2.20;100.00
80988;BME280;70452;39.386;-3.210;2023-12-20T04:05:20;95150.31;;;-2.21;100.00
80988;BME280;70452;39.386;-3.210;2023-12-20T04:07:55;95147.47;;;-2.19;100.00
80988;BME280;70452;39.386;-3.210;2023-12-20T04:10:49;95155.59;;;-1.98;100.00
80988;BME280;70452;39.386;-3.210;2023-12-20T04:13:31;95154.09;;;-2.15;100.00
80988;BME280;70452;39.386;-3.210;2023-12-20T04:16:04;95148.41;;;-2.12;100.00
80988;BME280;70452;39.386;-3.210;2023-12-20T04:18:51;95153.66;;;-2.04;100.00
80988;BME280;70452;39.386;-3.210;2023-12-20T04:21:41;95159.31;;;-2.22;100.00
80988;BME280;70452;39.386;-3.210;2023-12-20T04:24:28;95151.69;;;-2.25;100.00
80988;BME280;70452;39.386;-3.210;2023-12-20T04:27:09;95154.28;;;-2.17;100.00
80988;BME280;70452;39.386;-3.210;2023-12-20T04:29:58;95149.75;;;-2.31;100.00
80988;BME280;70452;39.386;-3.210;2023-12-20T04:32:34;95153.16;;;-2.22;100.00
80988;BME280;70452;39.386;-3.210;2023-12-20T04:35:32;95162.28;;;-2.17;100.00
80988;BME280;70452;39.386;-3.210;2023-12-20T04:38:18;95165.53;;;-2.21;100.00
80988;BME280;70452;39.386;-3.210;2023-12-20T04:40:52;95168.19;;;-2.21;100.00
80988;BME280;70452;39.386;-3.210;2023-12-20T04:43:42;95170.47;;;-2.18;100.00
80988;BME280;70452;39.386;-3.210;2023-12-20T04:46:34;95168.59;;;-2.10;100.00
80988;BME280;70452;39.386;-3.210;2023-12-20T04:49:16;95175.41;;;-2.07;100.00
80988;BME280;70452;39.386;-3.210;2023-12-20T04:51:54;95175.94;;;-2.12;100.00
80988;BME280;70452;39.386;-3.210;2023-12-20T04:55:11;95174.56;;;-2.08;100.00
80988;BME280;70452;39.386;-3.210;2023-12-20T04:57:39;95174.22;;;-2.04;100.00
80988;BME280;70452;39.386;-3.210;2023-12-20T05:00:12;95177.25;;;-2.08;100.00
80988;BME280;70452;39.386;-3.210;2023-12-20T05:03:05;95169.66;;;-2.19;100.00
80988;BME280;70452;39.386;-3.210;2023-12-20T05:05:49;95171.69;;;-2.21;100.00
80988;BME280;70452;39.386;-3.210;2023-12-20T05:08:20;95159.59;;;-2.32;100.00
80988;BME280;70452;39.386;-3.210;2023-12-20T05:10:59;95153.31;;;-2.39;100.00
80988;BME280;70452;39.386;-3.210;2023-12-20T05:13:39;95154.38;;;-2.48;100.00
80988;BME280;70452;39.386;-3.210;2023-12-20T05:16:28;95155.00;;;-2.61;100.00
80988;BME280;70452;39.386;-3.210;2023-12-20T05:19:06;95144.44;;;-2.77;100.00
80988;BME280;70452;39.386;-3.210;2023-12-20T05:22:01;95135.34;;;-2.91;100.00
80988;BME280;70452;39.386;-3.210;2023-12-20T05:24:32;95132.59;;;-2.75;100.00
80988;BME280;70452;39.386;-3.210;2023-12-20T05:27:12;95131.72;;;-2.75;100.00
80988;BME280;70452;39.386;-3.210;2023-12-20T05:29:50;95130.34;;;-2.63;100.00
80988;BME280;70452;39.386;-3.210;2023-12-20T05:32:43;95138.50;;;-2.65;100.00
80988;BME280;70452;39.386;-3.210;2023-12-20T05:35:28;95145.66;;;-2.42;100.00
80988;BME280;70452;39.386;-3.210;2023-12-20T05:38:11;95144.06;;;-2.51;100.00
80988;BME280;70452;39.386;-3.210;2023-12-20T05:40:53;95162.63;;;-2.58;100.00
80988;BME280;70452;39.386;-3.210;2023-12-20T05:43:44;95151.94;;;-2.58;100.00
80988;BME280;70452;39.386;-3.210;2023-12-20T05:46:36;95140.09;;;-2.55;100.00
80988;BME280;70452;39.386;-3.210;2023-12-20T05:49:21;95143.72;;;-2.48;100.00
80988;BME280;70452;39.386;-3.210;2023-12-20T05:51:56;95148.88;;;-2.47;100.00
80988;BME280;70452;39.386;-3.210;2023-12-20T05:54:36;95139.88;;;-2.46;100.00
80988;BME280;70452;39.386;-3.210;2023-12-20T05:57:16;95145.66;;;-2.42;100.00
80988;BME280;70452;39.386;-3.210;2023-12-20T05:59:57;95131.38;;;-2.49;100.00
80988;BME280;70452;39.386;-3.210;2023-12-20T06:02:26;95130.66;;;-2.43;100.00
80988;BME280;70452;39.386;-3.210;2023-12-20T06:05:07;95120.31;;;-2.46;100.00
80988;BME280;70452;39.386;-3.210;2023-12-20T06:07:47;95141.69;;;-2.46;100.00
80988;BME280;70452;39.386;-3.210;2023-12-20T06:10:19;95152.13;;;-2.36;100.00
80988;BME280;70452;39.386;-3.210;2023-12-20T06:12:52;95152.28;;;-2.38;100.00
80988;BME280;70452;39.386;-3.210;2023-12-20T06:15:37;95162.75;;;-2.51;100.00
80988;BME280;70452;39.386;-3.210;2023-12-20T06:18:17;95162.09;;;-2.53;100.00
80988;BME280;70452;39.386;-3.210;2023-12-20T06:20:55;95166.28;;;-2.51;100.00
80988;BME280;70452;39.386;-3.210;2023-12-20T06:23:49;95158.16;;;-2.42;100.00
80988;BME280;70452;39.386;-3.210;2023-12-20T06:26:28;95149.50;;;-2.45;100.00
80988;BME280;70452;39.386;-3.210;2023-12-20T06:29:03;95172.31;;;-2.34;100.00
80988;BME280;70452;39.386;-3.210;2023-12-20T06:31:41;95178.34;;;-2.40;100.00
80988;BME280;70452;39.386;-3.210;2023-12-20T06:34:13;95159.78;;;-2.33;100.00
80988;BME280;70452;39.386;-3.210;2023-12-20T06:36:43;95175.69;;;-2.40;100.00
80988;BME280;70452;39.386;-3.210;2023-12-20T06:39:23;95173.53;;;-2.45;100.00
80988;BME280;70452;39.386;-3.210;2023-12-20T06:42:02;95201.97;;;-2.52;100.00
80988;BME280;70452;39.386;-3.210;2023-12-20T06:44:35;95197.16;;;-2.56;100.00
80988;BME280;70452;39.386;-3.210;2023-12-20T06:47:15;95211.28;;;-2.48;100.00
80988;BME280;70452;39.386;-3.210;2023-12-20T06:49:50;95210.94;;;-2.45;100.00
80988;BME280;70452;39.386;-3.210;2023-12-20T06:52:47;95224.22;;;-2.36;100.00
80988;BME280;70452;39.386;-3.210;2023-12-20T06:55:19;95220.72;;;-2.37;100.00
80988;BME280;70452;39.386;-3.210;2023-12-20T06:57:57;95233.00;;;-2.28;100.00
80988;BME280;70452;39.386;-3.210;2023-12-20T07:00:36;95224.53;;;-2.31;100.00
80988;BME280;70452;39.386;-3.210;2023-12-20T07:03:19;95222.91;;;-2.17;100.00
80988;BME280;70452;39.386;-3.210;2023-12-20T07:06:03;95227.69;;;-1.90;100.00
80988;BME280;70452;39.386;-3.210;2023-12-20T07:08:39;95217.13;;;-1.68;100.00
80988;BME280;70452;39.386;-3.210;2023-12-20T07:11:20;95220.91;;;-1.47;100.00
80988;BME280;70452;39.386;-3.210;2023-12-20T07:13:54;95218.91;;;-1.30;100.00
80988;BME280;70452;39.386;-3.210;2023-12-20T07:16:35;95209.75;;;-1.21;100.00
80988;BME280;70452;39.386;-3.210;2023-12-20T07:19:10;95215.75;;;-1.04;100.00
80988;BME280;70452;39.386;-3.210;2023-12-20T07:21:44;95209.88;;;-0.93;100.00
80988;BME280;70452;39.386;-3.210;2023-12-20T07:24:16;95210.06;;;-0.80;100.00
80988;BME280;70452;39.386;-3.210;2023-12-20T07:26:51;95211.22;;;-0.67;100.00
80988;BME280;70452;39.386;-3.210;2023-12-20T07:29:20;95209.25;;;-0.59;100.00
80988;BME280;70452;39.386;-3.210;2023-12-20T07:31:56;95202.78;;;-0.49;100.00
80988;BME280;70452;39.386;-3.210;2023-12-20T07:34:36;95206.91;;;-0.47;100.00
80988;BME280;70452;39.386;-3.210;2023-12-20T07:37:09;95197.88;;;-0.46;100.00
80988;BME280;70452;39.386;-3.210;2023-12-20T07:39:41;95202.91;;;-0.36;100.00
80988;BME280;70452;39.386;-3.210;2023-12-20T07:42:10;95195.56;;;-0.27;100.00
80988;BME280;70452;39.386;-3.210;2023-12-20T07:44:45;95193.16;;;-0.22;100.00
80988;BME280;70452;39.386;-3.210;2023-12-20T07:47:29;95191.16;;;-0.13;100.00
80988;BME280;70452;39.386;-3.210;2023-12-20T07:50:04;95201.09;;;-0.07;100.00
80988;BME280;70452;39.386;-3.210;2023-12-20T07:55:21;95200.66;;;0.11;100.00
80988;BME280;70452;39.386;-3.210;2023-12-20T07:57:56;95213.00;;;0.12;100.00
80988;BME280;70452;39.386;-3.210;2023-12-20T08:00:33;95202.94;;;0.14;100.00
80988;BME280;70452;39.386;-3.210;2023-12-20T08:03:17;95199.03;;;0.16;100.00
80988;BME280;70452;39.386;-3.210;2023-12-20T08:05:46;95201.34;;;0.20;100.00
80988;BME280;70452;39.386;-3.210;2023-12-20T08:08:20;95207.66;;;0.12;100.00
80988;BME280;70452;39.386;-3.210;2023-12-20T08:10:53;95209.31;;;0.13;100.00
80988;BME280;70452;39.386;-3.210;2023-12-20T08:13:54;95210.75;;;0.15;100.00
80988;BME280;70452;39.386;-3.210;2023-12-20T08:16:34;95208.34;;;0.21;100.00
80988;BME280;70452;39.386;-3.210;2023-12-20T08:19:17;95217.84;;;0.23;100.00
80988;BME280;70452;39.386;-3.210;2023-12-20T08:21:46;95229.41;;;0.24;100.00
80988;BME280;70452;39.386;-3.210;2023-12-20T08:24:25;95224.91;;;0.31;100.00
80988;BME280;70452;39.386;-3.210;2023-12-20T08:27:09;95236.31;;;0.33;100.00
80988;BME280;70452;39.386;-3.210;2023-12-20T08:29:43;95233.94;;;0.23;100.00
80988;BME280;70452;39.386;-3.210;2023-12-20T08:32:18;95224.28;;;0.29;100.00
80988;BME280;70452;39.386;-3.210;2023-12-20T08:34:56;95221.59;;;0.29;100.00
80988;BME280;70452;39.386;-3.210;2023-12-20T08:37:29;95216.69;;;0.32;100.00
80988;BME280;70452;39.386;-3.210;2023-12-20T08:39:58;95213.63;;;0.35;100.00
80988;BME280;70452;39.386;-3.210;2023-12-20T08:42:31;95210.97;;;0.42;100.00
80988;BME280;70452;39.386;-3.210;2023-12-20T08:45:11;95203.41;;;0.52;100.00
80988;BME280;70452;39.386;-3.210;2023-12-20T08:47:58;95206.56;;;0.63;100.00
80988;BME280;70452;39.386;-3.210;2023-12-20T08:50:37;95218.38;;;0.68;100.00
80988;BME280;70452;39.386;-3.210;2023-12-20T08:53:11;95228.28;;;0.68;100.00
80988;BME280;70452;39.386;-3.210;2023-12-20T08:55:45;95247.75;;;0.77;100.00
80988;BME280;70452;39.386;-3.210;2023-12-20T08:58:19;95260.34;;;0.76;100.00
80988;BME280;70452;39.386;-3.210;2023-12-20T09:00:49;95270.88;;;0.78;100.00
80988;BME280;70452;39.386;-3.210;2023-12-20T09:03:41;95263.25;;;0.81;100.00
80988;BME280;70452;39.386;-3.210;2023-12-20T09:06:17;95259.63;;;0.96;100.00
80988;BME280;70452;39.386;-3.210;2023-12-20T09:08:51;95265.47;;;1.06;100.00
80988;BME280;70452;39.386;-3.210;2023-12-20T09:11:21;95260.88;;;1.00;100.00
80988;BME280;70452;39.386;-3.210;2023-12-20T09:14:01;95257.66;;;1.11;100.00
80988;BME280;70452;39.386;-3.210;2023-12-20T09:16:35;95259.75;;;1.16;100.00
80988;BME280;70452;39.386;-3.210;2023-12-20T09:19:17;95261.03;;;1.26;100.00
80988;BME280;70452;39.386;-3.210;2023-12-20T09:21:52;95254.88;;;1.33;100.00
80988;BME280;70452;39.386;-3.210;2023-12-20T09:24:21;95251.16;;;1.40;100.00
80988;BME280;70452;39.386;-3.210;2023-12-20T09:27:00;95266.06;;;1.49;100.00
80988;BME280;70452;39.386;-3.210;2023-12-20T09:29:33;95273.97;;;1.58;100.00
80988;BME280;70452;39.386;-3.210;2023-12-20T09:32:12;95292.19;;;1.62;100.00
80988;BME280;70452;39.386;-3.210;2023-12-20T09:34:47;95303.31;;;1.59;100.00
80988;BME280;70452;39.386;-3.210;2023-12-20T09:37:26;95308.25;;;1.49;100.00
80988;BME280;70452;39.386;-3.210;2023-12-20T09:40:04;95307.44;;;1.55;100.00
80988;BME280;70452;39.386;-3.210;2023-12-20T09:42:58;95315.31;;;1.57;100.00
80988;BME280;70452;39.386;-3.210;2023-12-20T09:45:33;95304.97;;;1.54;100.00
80988;BME280;70452;39.386;-3.210;2023-12-20T09:48:05;95302.50;;;1.59;100.00
80988;BME280;70452;39.386;-3.210;2023-12-20T09:50:52;95299.03;;;1.72;100.00
80988;BME280;70452;39.386;-3.210;2023-12-20T09:53:25;95299.47;;;1.82;100.00
80988;BME280;70452;39.386;-3.210;2023-12-20T09:55:58;95302.59;;;1.92;100.00
80988;BME280;70452;39.386;-3.210;2023-12-20T09:58:37;95303.44;;;1.99;100.00
80988;BME280;70452;39.386;-3.210;2023-12-20T10:01:08;95307.22;;;2.12;100.00
80988;BME280;70452;39.386;-3.210;2023-12-20T10:03:39;95301.84;;;2.12;100.00
80988;BME280;70452;39.386;-3.210;2023-12-20T10:06:06;95303.50;;;2.19;100.00
80988;BME280;70452;39.386;-3.210;2023-12-20T10:08:36;95306.00;;;2.28;100.00
80988;BME280;70452;39.386;-3.210;2023-12-20T10:11:11;95309.31;;;2.36;100.00
80988;BME280;70452;39.386;-3.210;2023-12-20T10:13:52;95316.16;;;2.52;100.00
80988;BME280;70452;39.386;-3.210;2023-12-20T10:16:52;95321.53;;;2.52;100.00
80988;BME280;70452;39.386;-3.210;2023-12-20T10:19:28;95324.03;;;2.60;100.00
80988;BME280;70452;39.386;-3.210;2023-12-20T10:22:04;95326.94;;;2.72;100.00
80988;BME280;70452;39.386;-3.210;2023-12-20T10:27:31;95323.41;;;2.92;100.00
80988;BME280;70452;39.386;-3.210;2023-12-20T10:30:05;95327.56;;;3.01;100.00
80988;BME280;70452;39.386;-3.210;2023-12-20T10:32:52;95331.06;;;3.15;100.00
80988;BME280;70452;39.386;-3.210;2023-12-20T10:35:27;95323.19;;;3.20;100.00
80988;BME280;70452;39.386;-3.210;2023-12-20T10:38:08;95314.47;;;3.25;100.00
80988;BME280;70452;39.386;-3.210;2023-12-20T10:40:54;95301.63;;;3.27;100.00
80988;BME280;70452;39.386;-3.210;2023-12-20T10:43:32;95295.59;;;3.31;100.00
80988;BME280;70452;39.386;-3.210;2023-12-20T10:46:09;95301.75;;;3.52;100.00
80988;BME280;70452;39.386;-3.210;2023-12-20T10:48:49;95296.13;;;3.60;100.00
80988;BME280;70452;39.386;-3.210;2023-12-20T10:51:26;95293.38;;;3.73;100.00
80988;BME280;70452;39.386;-3.210;2023-12-20T10:54:00;95304.06;;;3.93;100.00
80988;BME280;70452;39.386;-3.210;2023-12-20T10:56:52;95302.75;;;4.09;100.00
80988;BME280;70452;39.386;-3.210;2023-12-20T10:59:23;95286.94;;;4.20;100.00
80988;BME280;70452;39.386;-3.210;2023-12-20T11:02:01;95279.53;;;4.40;100.00
80988;BME280;70452;39.386;-3.210;2023-12-20T11:10:42;95278.94;;;4.88;100.00
80988;BME280;70452;39.386;-3.210;2023-12-20T11:13:50;95274.00;;;5.04;100.00
80988;BME280;70452;39.386;-3.210;2023-12-20T11:16:31;95277.63;;;5.16;100.00
80988;BME280;70452;39.386;-3.210;2023-12-20T11:19:16;95278.22;;;5.18;100.00
80988;BME280;70452;39.386;-3.210;2023-12-20T11:21:58;95282.66;;;5.31;100.00
80988;BME280;70452;39.386;-3.210;2023-12-20T11:24:54;95266.16;;;5.39;100.00
80988;BME280;70452;39.386;-3.210;2023-12-20T11:27:43;95263.97;;;5.48;100.00
80988;BME280;70452;39.386;-3.210;2023-12-20T11:30:27;95250.00;;;5.51;100.00
80988;BME280;70452;39.386;-3.210;2023-12-20T11:33:10;95241.00;;;5.57;100.00
80988;BME280;70452;39.386;-3.210;2023-12-20T11:35:39;95242.03;;;5.56;100.00
80988;BME280;70452;39.386;-3.210;2023-12-20T11:38:21;95234.38;;;5.72;100.00
80988;BME280;70452;39.386;-3.210;2023-12-20T11:41:04;95238.50;;;5.74;100.00
80988;BME280;70452;39.386;-3.210;2023-12-20T11:43:47;95227.56;;;5.81;100.00
80988;BME280;70452;39.386;-3.210;2023-12-20T11:46:22;95224.41;;;5.84;100.00
80988;BME280;70452;39.386;-3.210;2023-12-20T11:48:54;95220.81;;;5.90;100.00
80988;BME280;70452;39.386;-3.210;2023-12-20T11:51:33;95208.91;;;5.91;100.00
80988;BME280;70452;39.386;-3.210;2023-12-20T11:54:07;95208.41;;;5.82;100.00
80988;BME280;70452;39.386;-3.210;2023-12-20T11:56:43;95194.44;;;5.86;100.00
80988;BME280;70452;39.386;-3.210;2023-12-20T11:59:18;95192.03;;;5.96;100.00
80988;BME280;70452;39.386;-3.210;2023-12-20T12:02:01;95191.50;;;5.87;100.00
80988;BME280;70452;39.386;-3.210;2023-12-20T12:04:29;95191.50;;;5.87;100.00
80988;BME280;70452;39.386;-3.210;2023-12-20T12:07:09;95185.41;;;5.92;100.00
80988;BME280;70452;39.386;-3.210;2023-12-20T12:09:43;95183.91;;;5.96;100.00
80988;BME280;70452;39.386;-3.210;2023-12-20T12:12:27;95185.75;;;6.14;100.00
80988;BME280;70452;39.386;-3.210;2023-12-20T12:15:08;95176.59;;;6.38;100.00
80988;BME280;70452;39.386;-3.210;2023-12-20T12:17:49;95162.50;;;6.48;100.00
80988;BME280;70452;39.386;-3.210;2023-12-20T12:20:23;95173.69;;;6.52;100.00
80988;BME280;70452;39.386;-3.210;2023-12-20T12:23:05;95160.59;;;6.49;100.00
80988;BME280;70452;39.386;-3.210;2023-12-20T12:25:38;95154.84;;;6.57;100.00
80988;BME280;70452;39.386;-3.210;2023-12-20T12:28:28;95146.97;;;6.79;100.00
80988;BME280;70452;39.386;-3.210;2023-12-20T12:31:01;95142.25;;;6.86;100.00
80988;BME280;70452;39.386;-3.210;2023-12-20T12:33:32;95149.50;;;6.98;100.00
80988;BME280;70452;39.386;-3.210;2023-12-20T12:36:10;95134.44;;;7.13;100.00
80988;BME280;70452;39.386;-3.210;2023-12-20T12:38:44;95133.09;;;7.16;100.00
80988;BME280;70452;39.386;-3.210;2023-12-20T12:41:41;95130.97;;;7.18;100.00
80988;BME280;70452;39.386;-3.210;2023-12-20T12:44:08;95128.50;;;7.17;100.00
80988;BME280;70452;39.386;-3.210;2023-12-20T12:46:50;95113.19;;;7.22;100.00
80988;BME280;70452;39.386;-3.210;2023-12-20T12:49:38;95117.16;;;7.31;100.00
80988;BME280;70452;39.386;-3.210;2023-12-20T12:52:15;95110.38;;;7.46;100.00
80988;BME280;70452;39.386;-3.210;2023-12-20T12:54:48;95107.97;;;7.61;100.00
80988;BME280;70452;39.386;-3.210;2023-12-20T12:57:24;95108.09;;;7.83;100.00
80988;BME280;70452;39.386;-3.210;2023-12-20T12:59:59;95098.41;;;8.04;100.00
80988;BME280;70452;39.386;-3.210;2023-12-20T13:02:35;95095.72;;;8.21;100.00
80988;BME280;70452;39.386;-3.210;2023-12-20T13:05:14;95090.19;;;8.33;100.00
80988;BME280;70452;39.386;-3.210;2023-12-20T13:07:45;95082.81;;;8.45;100.00
80988;BME280;70452;39.386;-3.210;2023-12-20T13:10:19;95070.47;;;8.55;100.00
80988;BME280;70452;39.386;-3.210;2023-12-20T13:13:07;95066.97;;;8.59;100.00
80988;BME280;70452;39.386;-3.210;2023-12-20T13:15:47;95068.84;;;8.76;100.00
80988;BME280;70452;39.386;-3.210;2023-12-20T13:18:28;95060.34;;;8.89;100.00
80988;BME280;70452;39.386;-3.210;2023-12-20T13:21:12;95057.75;;;8.99;100.00
80988;BME280;70452;39.386;-3.210;2023-12-20T13:23:51;95060.09;;;9.13;100.00
80988;BME280;70452;39.386;-3.210;2023-12-20T13:26:22;95058.56;;;9.22;100.00
80988;BME280;70452;39.386;-3.210;2023-12-20T13:29:01;95056.53;;;9.34;100.00
80988;BME280;70452;39.386;-3.210;2023-12-20T13:31:43;95040.31;;;9.45;100.00
80988;BME280;70452;39.386;-3.210;2023-12-20T13:34:22;95050.41;;;9.44;100.00
80988;BME280;70452;39.386;-3.210;2023-12-20T13:36:59;95042.59;;;9.53;100.00
80988;BME280;70452;39.386;-3.210;2023-12-20T13:39:33;95038.22;;;9.52;100.00
80988;BME280;70452;39.386;-3.210;2023-12-20T13:42:14;95036.44;;;9.63;100.00
80988;BME280;70452;39.386;-3.210;2023-12-20T13:45:00;95041.34;;;9.66;100.00
80988;BME280;70452;39.386;-3.210;2023-12-20T13:47:35;95028.31;;;9.68;100.00
80988;BME280;70452;39.386;-3.210;2023-12-20T13:50:18;95034.44;;;9.80;100.00
80988;BME280;70452;39.386;-3.210;2023-12-20T13:53:02;95020.38;;;9.93;100.00
80988;BME280;70452;39.386;-3.210;2023-12-20T13:55:36;95028.16;;;10.12;95.31
80988;BME280;70452;39.386;-3.210;2023-12-20T13:58:09;95028.19;;;10.17;94.59
80988;BME280;70452;39.386;-3.210;2023-12-20T14:00:58;95026.25;;;10.12;94.20
80988;BME280;70452;39.386;-3.210;2023-12-20T14:03:29;95020.03;;;10.17;94.76
80988;BME280;70452;39.386;-3.210;2023-12-20T14:06:02;95017.84;;;10.19;94.38
80988;BME280;70452;39.386;-3.210;2023-12-20T14:08:35;95018.94;;;10.18;95.34
80988;BME280;70452;39.386;-3.210;2023-12-20T14:11:07;95022.78;;;10.22;94.70
80988;BME280;70452;39.386;-3.210;2023-12-20T14:13:39;95027.97;;;10.24;94.82